sensor_id;sensor_type;location;lat;lon;timestamp;temperature;humidity
11107;DHT22;5607;48.302;14.294;2023-02-28T00:00:09;2.00;99.90
11107;DHT22;5607;48.302;14.294;2023-02-28T00:02:58;2.10;99.90
11107;DHT22;5607;48.302;14.294;2023-02-28T00:05:45;2.00;99.90
11107;DHT22;5607;48.302;14.294;2023-02-28T00:08:31;1.90;99.90
11107;DHT22;5607;48.302;14.294;2023-02-28T00:11:18;1.90;99.90
11107;DHT22;5607;48.302;14.294;2023-02-28T00:14:04;2.00;99.90
11107;DHT22;5607;48.302;14.294;2023-02-28T00:16:51;2.00;99.90
11107;DHT22;5607;48.302;14.294;2023-02-28T00:19:37;2.00;99.90
11107;DHT22;5607;48.302;14.294;2023-02-28T00:22:24;2.00;99.90
11107;DHT22;5607;48.302;14.294;2023-02-28T00:25:11;1.90;99.90
11107;DHT22;5607;48.302;14.294;2023-02-28T00:27:59;1.90;99.90
11107;DHT22;5607;48.302;14.294;2023-02-28T00:30:46;1.90;99.90
11107;DHT22;5607;48.302;14.294;2023-02-28T00:33:33;1.70;99.90
11107;DHT22;5607;48.302;14.294;2023-02-28T00:36:19;1.60;99.90
11107;DHT22;5607;48.302;14.294;2023-02-28T00:39:06;1.60;99.90
11107;DHT22;5607;48.302;14.294;2023-02-28T00:41:52;1.60;99.90
11107;DHT22;5607;48.302;14.294;2023-02-28T00:44:39;1.60;99.90
11107;DHT22;5607;48.302;14.294;2023-02-28T00:47:26;1.60;99.90
11107;DHT22;5607;48.302;14.294;2023-02-28T00:50:13;1.50;99.90
11107;DHT22;5607;48.302;14.294;2023-02-28T00:52:59;1.50;99.90
11107;DHT22;5607;48.302;14.294;2023-02-28T00:55:46;1.50;99.90
11107;DHT22;5607;48.302;14.294;2023-02-28T00:58:32;1.50;99.90
11107;DHT22;5607;48.302;14.294;2023-02-28T01:01:19;1.50;99.90
11107;DHT22;5607;48.302;14.294;2023-02-28T01:04:05;1.50;99.90
11107;DHT22;5607;48.302;14.294;2023-02-28T01:06:52;1.50;99.90
11107;DHT22;5607;48.302;14.294;2023-02-28T01:09:38;1.50;99.90
11107;DHT22;5607;48.302;14.294;2023-02-28T01:12:25;1.40;99.90
11107;DHT22;5607;48.302;14.294;2023-02-28T01:15:12;1.40;99.90
11107;DHT22;5607;48.302;14.294;2023-02-28T01:17:58;1.30;99.90
11107;DHT22;5607;48.302;14.294;2023-02-28T01:20:45;1.30;99.90
11107;DHT22;5607;48.302;14.294;2023-02-28T01:23:32;1.30;99.90
11107;DHT22;5607;48.302;14.294;2023-02-28T01:26:20;1.30;99.90
11107;DHT22;5607;48.302;14.294;2023-02-28T01:29:08;1.20;99.90
11107;DHT22;5607;48.302;14.294;2023-02-28T01:31:55;1.20;99.90
11107;DHT22;5607;48.302;14.294;2023-02-28T01:34:43;1.20;99.90
11107;DHT22;5607;48.302;14.294;2023-02-28T01:37:29;1.20;99.90
11107;DHT22;5607;48.302;14.294;2023-02-28T01:40:16;1.10;99.90
11107;DHT22;5607;48.302;14.294;2023-02-28T01:43:02;1.10;99.90
11107;DHT22;5607;48.302;14.294;2023-02-28T01:45:51;1.10;99.90
11107;DHT22;5607;48.302;14.294;2023-02-28T01:49:13;1.10;99.90
11107;DHT22;5607;48.302;14.294;2023-02-28T01:51:58;1.00;99.90
11107;DHT22;5607;48.302;14.294;2023-02-28T01:54:45;1.00;99.90
11107;DHT22;5607;48.302;14.294;2023-02-28T01:57:39;1.00;99.90
11107;DHT22;5607;48.302;14.294;2023-02-28T02:00:32;1.00;99.90
11107;DHT22;5607;48.302;14.294;2023-02-28T02:03:19;1.00;99.90
11107;DHT22;5607;48.302;14.294;2023-02-28T02:06:07;1.00;99.90
11107;DHT22;5607;48.302;14.294;2023-02-28T02:08:53;1.10;99.90
11107;DHT22;5607;48.302;14.294;2023-02-28T02:11:41;1.10;99.90
11107;DHT22;5607;48.302;14.294;2023-02-28T02:14:48;1.10;99.90
11107;DHT22;5607;48.302;14.294;2023-02-28T02:17:47;1.10;99.90
11107;DHT22;5607;48.302;14.294;2023-02-28T02:32:54;1.40;99.90
11107;DHT22;5607;48.302;14.294;2023-02-28T02:35:55;1.40;99.90
11107;DHT22;5607;48.302;14.294;2023-02-28T02:41:54;1.40;99.90
11107;DHT22;5607;48.302;14.294;2023-02-28T02:44:47;1.40;99.90
11107;DHT22;5607;48.302;14.294;2023-02-28T02:47:40;1.40;99.90
11107;DHT22;5607;48.302;14.294;2023-02-28T02:50:33;1.40;99.90
11107;DHT22;5607;48.302;14.294;2023-02-28T02:53:44;1.40;99.90
11107;DHT22;5607;48.302;14.294;2023-02-28T02:56:35;1.50;99.90
11107;DHT22;5607;48.302;14.294;2023-02-28T02:59:25;1.40;99.90
11107;DHT22;5607;48.302;14.294;2023-02-28T03:02:14;1.40;99.90
11107;DHT22;5607;48.302;14.294;2023-02-28T03:05:04;1.50;99.90
11107;DHT22;5607;48.302;14.294;2023-02-28T03:07:58;1.40;99.90
11107;DHT22;5607;48.302;14.294;2023-02-28T03:10:45;1.40;99.90
11107;DHT22;5607;48.302;14.294;2023-02-28T03:20:44;1.20;99.90
11107;DHT22;5607;48.302;14.294;2023-02-28T03:23:45;1.30;99.90
11107;DHT22;5607;48.302;14.294;2023-02-28T03:26:41;1.20;99.90
11107;DHT22;5607;48.302;14.294;2023-02-28T03:29:33;1.30;99.90
11107;DHT22;5607;48.302;14.294;2023-02-28T03:32:36;1.30;99.90
11107;DHT22;5607;48.302;14.294;2023-02-28T03:35:30;1.30;99.90
11107;DHT22;5607;48.302;14.294;2023-02-28T03:38:22;1.30;99.90
11107;DHT22;5607;48.302;14.294;2023-02-28T03:41:19;1.30;99.90
11107;DHT22;5607;48.302;14.294;2023-02-28T03:44:11;1.30;99.90
11107;DHT22;5607;48.302;14.294;2023-02-28T03:47:03;1.30;99.90
11107;DHT22;5607;48.302;14.294;2023-02-28T03:50:08;1.20;99.90
11107;DHT22;5607;48.302;14.294;2023-02-28T03:55:53;1.20;99.90
11107;DHT22;5607;48.302;14.294;2023-02-28T03:58:47;1.20;99.90
11107;DHT22;5607;48.302;14.294;2023-02-28T04:01:35;1.20;99.90
11107;DHT22;5607;48.302;14.294;2023-02-28T04:04:27;1.10;99.90
11107;DHT22;5607;48.302;14.294;2023-02-28T04:07:15;1.20;99.90
11107;DHT22;5607;48.302;14.294;2023-02-28T04:10:02;1.10;99.90
11107;DHT22;5607;48.302;14.294;2023-02-28T04:12:50;1.20;99.90
11107;DHT22;5607;48.302;14.294;2023-02-28T04:15:36;1.20;99.90
11107;DHT22;5607;48.302;14.294;2023-02-28T04:18:23;1.20;99.90
11107;DHT22;5607;48.302;14.294;2023-02-28T04:21:10;1.10;99.90
11107;DHT22;5607;48.302;14.294;2023-02-28T04:23:57;1.10;99.90
11107;DHT22;5607;48.302;14.294;2023-02-28T04:26:47;1.10;99.90
11107;DHT22;5607;48.302;14.294;2023-02-28T04:29:36;1.10;99.90
11107;DHT22;5607;48.302;14.294;2023-02-28T04:32:22;1.10;99.90
11107;DHT22;5607;48.302;14.294;2023-02-28T04:35:09;1.20;99.90
11107;DHT22;5607;48.302;14.294;2023-02-28T04:37:56;1.20;99.90
11107;DHT22;5607;48.302;14.294;2023-02-28T04:40:43;1.20;99.90
11107;DHT22;5607;48.302;14.294;2023-02-28T04:43:30;1.20;99.90
11107;DHT22;5607;48.302;14.294;2023-02-28T04:46:17;1.30;99.90
11107;DHT22;5607;48.302;14.294;2023-02-28T04:49:04;1.30;99.90
11107;DHT22;5607;48.302;14.294;2023-02-28T04:51:51;1.40;99.90
11107;DHT22;5607;48.302;14.294;2023-02-28T04:54:38;1.30;99.90
11107;DHT22;5607;48.302;14.294;2023-02-28T04:57:26;1.30;99.90
11107;DHT22;5607;48.302;14.294;2023-02-28T05:00:12;1.30;99.90
11107;DHT22;5607;48.302;14.294;2023-02-28T05:03:02;1.30;99.90
11107;DHT22;5607;48.302;14.294;2023-02-28T05:05:49;1.20;99.90
11107;DHT22;5607;48.302;14.294;2023-02-28T05:08:36;1.20;99.90
11107;DHT22;5607;48.302;14.294;2023-02-28T05:11:29;1.20;99.90
11107;DHT22;5607;48.302;14.294;2023-02-28T05:14:20;1.30;99.90
11107;DHT22;5607;48.302;14.294;2023-02-28T05:17:08;1.30;99.90
11107;DHT22;5607;48.302;14.294;2023-02-28T05:19:54;1.30;99.90
11107;DHT22;5607;48.302;14.294;2023-02-28T05:22:42;1.20;99.90
11107;DHT22;5607;48.302;14.294;2023-02-28T05:25:29;1.20;99.90
11107;DHT22;5607;48.302;14.294;2023-02-28T05:28:16;1.30;99.90
11107;DHT22;5607;48.302;14.294;2023-02-28T05:31:02;1.30;99.90
11107;DHT22;5607;48.302;14.294;2023-02-28T05:33:49;1.20;99.90
11107;DHT22;5607;48.302;14.294;2023-02-28T05:36:36;1.20;99.90
11107;DHT22;5607;48.302;14.294;2023-02-28T05:39:23;1.20;99.90
11107;DHT22;5607;48.302;14.294;2023-02-28T05:42:10;1.20;99.90
11107;DHT22;5607;48.302;14.294;2023-02-28T05:44:56;1.20;99.90
11107;DHT22;5607;48.302;14.294;2023-02-28T05:47:43;1.20;99.90
11107;DHT22;5607;48.302;14.294;2023-02-28T05:50:30;1.20;99.90
11107;DHT22;5607;48.302;14.294;2023-02-28T05:53:16;1.20;99.90
11107;DHT22;5607;48.302;14.294;2023-02-28T05:56:03;1.20;99.90
11107;DHT22;5607;48.302;14.294;2023-02-28T05:58:50;1.20;99.90
11107;DHT22;5607;48.302;14.294;2023-02-28T06:01:39;1.20;99.90
11107;DHT22;5607;48.302;14.294;2023-02-28T06:04:34;1.30;99.90
11107;DHT22;5607;48.302;14.294;2023-02-28T06:07:22;1.30;99.90
11107;DHT22;5607;48.302;14.294;2023-02-28T06:13:55;1.30;99.90
11107;DHT22;5607;48.302;14.294;2023-02-28T06:16:45;1.30;99.90
11107;DHT22;5607;48.302;14.294;2023-02-28T06:19:32;1.30;99.90
11107;DHT22;5607;48.302;14.294;2023-02-28T06:22:19;1.20;99.90
11107;DHT22;5607;48.302;14.294;2023-02-28T06:25:07;1.30;99.90
11107;DHT22;5607;48.302;14.294;2023-02-28T06:27:55;1.40;99.90
11107;DHT22;5607;48.302;14.294;2023-02-28T06:30:43;1.40;99.90
11107;DHT22;5607;48.302;14.294;2023-02-28T06:33:29;1.40;99.90
11107;DHT22;5607;48.302;14.294;2023-02-28T06:36:16;1.40;99.90
11107;DHT22;5607;48.302;14.294;2023-02-28T06:39:03;1.50;99.90
11107;DHT22;5607;48.302;14.294;2023-02-28T06:41:52;1.50;99.90
11107;DHT22;5607;48.302;14.294;2023-02-28T06:44:38;1.50;99.90
11107;DHT22;5607;48.302;14.294;2023-02-28T06:47:25;1.60;99.90
11107;DHT22;5607;48.302;14.294;2023-02-28T06:50:12;1.60;99.90
11107;DHT22;5607;48.302;14.294;2023-02-28T06:52:59;1.70;99.90
11107;DHT22;5607;48.302;14.294;2023-02-28T06:55:45;1.80;99.90
11107;DHT22;5607;48.302;14.294;2023-02-28T06:58:32;1.90;99.90
11107;DHT22;5607;48.302;14.294;2023-02-28T07:01:19;1.90;99.90
11107;DHT22;5607;48.302;14.294;2023-02-28T07:04:06;1.80;99.90
11107;DHT22;5607;48.302;14.294;2023-02-28T07:06:53;1.80;99.90
11107;DHT22;5607;48.302;14.294;2023-02-28T07:09:42;1.80;99.90
11107;DHT22;5607;48.302;14.294;2023-02-28T07:12:29;1.90;99.90
11107;DHT22;5607;48.302;14.294;2023-02-28T07:15:16;2.00;99.90
11107;DHT22;5607;48.302;14.294;2023-02-28T07:18:03;2.10;99.90
11107;DHT22;5607;48.302;14.294;2023-02-28T07:20:50;2.20;99.90
11107;DHT22;5607;48.302;14.294;2023-02-28T07:23:37;2.20;99.90
11107;DHT22;5607;48.302;14.294;2023-02-28T07:26:25;2.20;99.90
11107;DHT22;5607;48.302;14.294;2023-02-28T07:29:11;2.30;99.90
11107;DHT22;5607;48.302;14.294;2023-02-28T07:31:58;2.30;99.90
11107;DHT22;5607;48.302;14.294;2023-02-28T07:34:45;2.40;99.90
11107;DHT22;5607;48.302;14.294;2023-02-28T07:37:32;2.60;99.90
11107;DHT22;5607;48.302;14.294;2023-02-28T07:40:22;2.60;99.90
11107;DHT22;5607;48.302;14.294;2023-02-28T07:43:11;2.50;99.90
11107;DHT22;5607;48.302;14.294;2023-02-28T07:46:08;2.70;99.90
11107;DHT22;5607;48.302;14.294;2023-02-28T07:48:56;2.90;99.90
11107;DHT22;5607;48.302;14.294;2023-02-28T07:51:45;3.00;99.90
11107;DHT22;5607;48.302;14.294;2023-02-28T07:54:32;3.20;99.90
11107;DHT22;5607;48.302;14.294;2023-02-28T07:57:19;3.30;99.90
11107;DHT22;5607;48.302;14.294;2023-02-28T08:00:07;3.30;99.90
11107;DHT22;5607;48.302;14.294;2023-02-28T08:02:55;3.40;99.90
11107;DHT22;5607;48.302;14.294;2023-02-28T08:05:42;3.40;99.90
11107;DHT22;5607;48.302;14.294;2023-02-28T08:08:28;3.50;99.90
11107;DHT22;5607;48.302;14.294;2023-02-28T08:11:17;3.60;99.90
11107;DHT22;5607;48.302;14.294;2023-02-28T08:14:04;3.70;99.90
11107;DHT22;5607;48.302;14.294;2023-02-28T08:16:51;3.90;99.90
11107;DHT22;5607;48.302;14.294;2023-02-28T08:19:37;4.10;99.90
11107;DHT22;5607;48.302;14.294;2023-02-28T08:22:24;4.10;99.90
11107;DHT22;5607;48.302;14.294;2023-02-28T08:25:10;4.30;99.90
11107;DHT22;5607;48.302;14.294;2023-02-28T08:27:57;4.00;99.90
11107;DHT22;5607;48.302;14.294;2023-02-28T08:30:44;4.20;99.90
11107;DHT22;5607;48.302;14.294;2023-02-28T08:33:30;4.40;99.90
11107;DHT22;5607;48.302;14.294;2023-02-28T08:36:17;4.60;99.90
11107;DHT22;5607;48.302;14.294;2023-02-28T08:39:05;4.70;99.90
11107;DHT22;5607;48.302;14.294;2023-02-28T08:41:52;4.80;99.90
11107;DHT22;5607;48.302;14.294;2023-02-28T08:44:39;4.90;99.90
11107;DHT22;5607;48.302;14.294;2023-02-28T08:47:27;5.00;99.90
11107;DHT22;5607;48.302;14.294;2023-02-28T08:50:14;4.90;99.90
11107;DHT22;5607;48.302;14.294;2023-02-28T08:53:01;5.00;99.90
11107;DHT22;5607;48.302;14.294;2023-02-28T08:55:54;5.20;99.90
11107;DHT22;5607;48.302;14.294;2023-02-28T08:58:43;5.20;99.90
11107;DHT22;5607;48.302;14.294;2023-02-28T09:01:29;5.20;99.90
11107;DHT22;5607;48.302;14.294;2023-02-28T09:04:18;5.40;99.90
11107;DHT22;5607;48.302;14.294;2023-02-28T09:07:04;5.40;99.90
11107;DHT22;5607;48.302;14.294;2023-02-28T09:09:51;5.30;99.90
11107;DHT22;5607;48.302;14.294;2023-02-28T09:12:40;5.10;99.90
11107;DHT22;5607;48.302;14.294;2023-02-28T09:15:27;5.10;99.90
11107;DHT22;5607;48.302;14.294;2023-02-28T09:18:14;5.30;99.90
11107;DHT22;5607;48.302;14.294;2023-02-28T09:21:02;5.50;99.90
11107;DHT22;5607;48.302;14.294;2023-02-28T09:23:55;5.30;99.90
11107;DHT22;5607;48.302;14.294;2023-02-28T09:26:42;5.30;99.90
11107;DHT22;5607;48.302;14.294;2023-02-28T09:29:29;5.30;99.90
11107;DHT22;5607;48.302;14.294;2023-02-28T09:32:15;5.50;99.90
11107;DHT22;5607;48.302;14.294;2023-02-28T09:35:04;5.60;99.90
11107;DHT22;5607;48.302;14.294;2023-02-28T09:37:52;5.40;99.90
11107;DHT22;5607;48.302;14.294;2023-02-28T09:40:52;5.40;99.90
11107;DHT22;5607;48.302;14.294;2023-02-28T09:43:45;5.40;99.90
11107;DHT22;5607;48.302;14.294;2023-02-28T09:49:40;5.80;99.90
11107;DHT22;5607;48.302;14.294;2023-02-28T09:52:30;5.80;99.90
11107;DHT22;5607;48.302;14.294;2023-02-28T09:55:20;5.90;99.90
11107;DHT22;5607;48.302;14.294;2023-02-28T09:58:09;5.70;99.90
11107;DHT22;5607;48.302;14.294;2023-02-28T10:01:11;5.70;99.90
11107;DHT22;5607;48.302;14.294;2023-02-28T10:04:16;5.70;99.90
11107;DHT22;5607;48.302;14.294;2023-02-28T10:07:46;5.80;99.90
11107;DHT22;5607;48.302;14.294;2023-02-28T10:10:46;5.50;99.90
11107;DHT22;5607;48.302;14.294;2023-02-28T10:13:36;5.60;99.90
11107;DHT22;5607;48.302;14.294;2023-02-28T10:19:25;5.70;99.90
11107;DHT22;5607;48.302;14.294;2023-02-28T10:22:32;5.90;99.90
11107;DHT22;5607;48.302;14.294;2023-02-28T10:25:25;6.00;99.90
11107;DHT22;5607;48.302;14.294;2023-02-28T10:28:15;6.10;99.90
11107;DHT22;5607;48.302;14.294;2023-02-28T10:31:04;6.20;99.90
11107;DHT22;5607;48.302;14.294;2023-02-28T10:33:50;6.30;99.90
11107;DHT22;5607;48.302;14.294;2023-02-28T10:36:37;6.20;99.90
11107;DHT22;5607;48.302;14.294;2023-02-28T10:39:37;6.20;99.90
11107;DHT22;5607;48.302;14.294;2023-02-28T10:42:30;6.40;99.90
11107;DHT22;5607;48.302;14.294;2023-02-28T10:45:16;6.40;99.90
11107;DHT22;5607;48.302;14.294;2023-02-28T10:48:05;6.40;99.90
11107;DHT22;5607;48.302;14.294;2023-02-28T10:51:13;6.40;99.90
11107;DHT22;5607;48.302;14.294;2023-02-28T10:54:03;6.30;99.90
11107;DHT22;5607;48.302;14.294;2023-02-28T11:00:18;6.40;99.90
11107;DHT22;5607;48.302;14.294;2023-02-28T11:03:25;6.30;99.90
11107;DHT22;5607;48.302;14.294;2023-02-28T11:06:27;6.30;99.90
11107;DHT22;5607;48.302;14.294;2023-02-28T11:09:23;6.40;99.90
11107;DHT22;5607;48.302;14.294;2023-02-28T11:20:59;7.10;99.90
11107;DHT22;5607;48.302;14.294;2023-02-28T11:23:48;7.30;99.90
11107;DHT22;5607;48.302;14.294;2023-02-28T11:26:38;7.30;99.90
11107;DHT22;5607;48.302;14.294;2023-02-28T11:29:31;7.30;99.90
11107;DHT22;5607;48.302;14.294;2023-02-28T11:32:19;7.30;99.90
11107;DHT22;5607;48.302;14.294;2023-02-28T11:37:57;7.30;99.90
11107;DHT22;5607;48.302;14.294;2023-02-28T11:47:04;7.80;99.90
11107;DHT22;5607;48.302;14.294;2023-02-28T11:50:21;8.20;99.90
11107;DHT22;5607;48.302;14.294;2023-02-28T11:55:59;8.20;99.90
11107;DHT22;5607;48.302;14.294;2023-02-28T12:24:37;8.50;99.90
11107;DHT22;5607;48.302;14.294;2023-02-28T12:27:40;8.60;99.90
11107;DHT22;5607;48.302;14.294;2023-02-28T12:30:31;8.70;99.90
11107;DHT22;5607;48.302;14.294;2023-02-28T12:33:21;8.90;99.90
11107;DHT22;5607;48.302;14.294;2023-02-28T12:36:11;8.90;99.90
11107;DHT22;5607;48.302;14.294;2023-02-28T12:39:16;9.10;99.90
11107;DHT22;5607;48.302;14.294;2023-02-28T12:42:29;9.10;99.90
11107;DHT22;5607;48.302;14.294;2023-02-28T12:45:22;9.30;99.90
11107;DHT22;5607;48.302;14.294;2023-02-28T12:48:14;9.50;99.90
11107;DHT22;5607;48.302;14.294;2023-02-28T12:51:06;9.70;99.90
11107;DHT22;5607;48.302;14.294;2023-02-28T12:57:04;10.30;99.90
11107;DHT22;5607;48.302;14.294;2023-02-28T13:00:16;10.50;99.90
11107;DHT22;5607;48.302;14.294;2023-02-28T13:06:41;10.80;99.90
11107;DHT22;5607;48.302;14.294;2023-02-28T13:09:30;11.00;99.90
11107;DHT22;5607;48.302;14.294;2023-02-28T13:12:16;10.90;99.90
11107;DHT22;5607;48.302;14.294;2023-02-28T13:17:51;10.50;99.90
11107;DHT22;5607;48.302;14.294;2023-02-28T13:20:46;10.40;99.90
11107;DHT22;5607;48.302;14.294;2023-02-28T13:29:40;11.00;99.90
11107;DHT22;5607;48.302;14.294;2023-02-28T13:32:29;10.90;99.90
11107;DHT22;5607;48.302;14.294;2023-02-28T13:35:43;10.70;99.90
11107;DHT22;5607;48.302;14.294;2023-02-28T13:38:34;10.30;99.90
11107;DHT22;5607;48.302;14.294;2023-02-28T13:44:20;9.60;99.90
11107;DHT22;5607;48.302;14.294;2023-02-28T13:53:41;9.70;99.90
11107;DHT22;5607;48.302;14.294;2023-02-28T13:56:46;9.50;99.90
11107;DHT22;5607;48.302;14.294;2023-02-28T14:05:37;8.80;99.90
11107;DHT22;5607;48.302;14.294;2023-02-28T14:08:24;8.60;99.90
11107;DHT22;5607;48.302;14.294;2023-02-28T14:11:23;8.50;99.90
11107;DHT22;5607;48.302;14.294;2023-02-28T14:17:33;8.50;99.90
11107;DHT22;5607;48.302;14.294;2023-02-28T14:20:20;8.50;99.90
11107;DHT22;5607;48.302;14.294;2023-02-28T14:23:43;8.50;99.90
11107;DHT22;5607;48.302;14.294;2023-02-28T14:36:03;8.70;99.90
11107;DHT22;5607;48.302;14.294;2023-02-28T14:38:55;8.50;99.90
11107;DHT22;5607;48.302;14.294;2023-02-28T14:41:43;8.30;99.90
11107;DHT22;5607;48.302;14.294;2023-02-28T14:44:31;8.20;99.90
11107;DHT22;5607;48.302;14.294;2023-02-28T14:47:18;8.10;99.90
11107;DHT22;5607;48.302;14.294;2023-02-28T14:50:05;8.10;99.90
11107;DHT22;5607;48.302;14.294;2023-02-28T14:52:54;8.00;99.90
11107;DHT22;5607;48.302;14.294;2023-02-28T14:55:43;8.00;99.90
11107;DHT22;5607;48.302;14.294;2023-02-28T14:58:32;8.00;99.90
11107;DHT22;5607;48.302;14.294;2023-02-28T15:01:20;8.00;99.90
11107;DHT22;5607;48.302;14.294;2023-02-28T15:04:11;8.00;99.90
11107;DHT22;5607;48.302;14.294;2023-02-28T15:07:10;8.00;99.90
11107;DHT22;5607;48.302;14.294;2023-02-28T15:13:11;8.00;99.90
11107;DHT22;5607;48.302;14.294;2023-02-28T15:16:04;8.10;99.90
11107;DHT22;5607;48.302;14.294;2023-02-28T15:19:02;7.90;99.90
11107;DHT22;5607;48.302;14.294;2023-02-28T15:21:54;7.60;99.90
11107;DHT22;5607;48.302;14.294;2023-02-28T15:24:50;7.50;99.90
11107;DHT22;5607;48.302;14.294;2023-02-28T15:27:41;7.50;99.90
11107;DHT22;5607;48.302;14.294;2023-02-28T15:30:33;7.40;99.90
11107;DHT22;5607;48.302;14.294;2023-02-28T15:33:21;7.30;99.90
11107;DHT22;5607;48.302;14.294;2023-02-28T15:39:17;7.10;99.90
11107;DHT22;5607;48.302;14.294;2023-02-28T15:42:12;7.10;99.90
11107;DHT22;5607;48.302;14.294;2023-02-28T15:45:25;7.10;99.90
11107;DHT22;5607;48.302;14.294;2023-02-28T15:48:23;7.20;99.90
11107;DHT22;5607;48.302;14.294;2023-02-28T15:54:23;7.20;99.90
11107;DHT22;5607;48.302;14.294;2023-02-28T15:57:15;7.00;99.90
11107;DHT22;5607;48.302;14.294;2023-02-28T16:00:08;6.90;99.90
11107;DHT22;5607;48.302;14.294;2023-02-28T16:02:58;6.70;99.90
11107;DHT22;5607;48.302;14.294;2023-02-28T16:05:45;6.60;99.90
11107;DHT22;5607;48.302;14.294;2023-02-28T16:08:32;6.70;99.90
11107;DHT22;5607;48.302;14.294;2023-02-28T16:11:19;6.60;99.90
11107;DHT22;5607;48.302;14.294;2023-02-28T16:14:26;6.40;99.90
11107;DHT22;5607;48.302;14.294;2023-02-28T16:17:16;6.20;99.90
11107;DHT22;5607;48.302;14.294;2023-02-28T16:20:18;6.20;99.90
11107;DHT22;5607;48.302;14.294;2023-02-28T16:23:07;6.10;99.90
11107;DHT22;5607;48.302;14.294;2023-02-28T16:25:54;6.10;99.90
11107;DHT22;5607;48.302;14.294;2023-02-28T16:28:40;6.10;99.90
11107;DHT22;5607;48.302;14.294;2023-02-28T16:31:27;6.00;99.90
11107;DHT22;5607;48.302;14.294;2023-02-28T16:34:14;6.00;99.90
11107;DHT22;5607;48.302;14.294;2023-02-28T16:37:00;5.80;99.90
11107;DHT22;5607;48.302;14.294;2023-02-28T16:39:47;5.80;99.90
11107;DHT22;5607;48.302;14.294;2023-02-28T16:42:33;5.90;99.90
11107;DHT22;5607;48.302;14.294;2023-02-28T16:45:24;5.90;99.90
11107;DHT22;5607;48.302;14.294;2023-02-28T16:48:13;5.90;99.90
11107;DHT22;5607;48.302;14.294;2023-02-28T16:51:01;5.90;99.90
11107;DHT22;5607;48.302;14.294;2023-02-28T16:53:50;5.90;99.90
11107;DHT22;5607;48.302;14.294;2023-02-28T16:56:37;6.00;99.90
11107;DHT22;5607;48.302;14.294;2023-02-28T16:59:25;5.90;99.90
11107;DHT22;5607;48.302;14.294;2023-02-28T17:02:14;5.90;99.90
11107;DHT22;5607;48.302;14.294;2023-02-28T17:05:01;5.90;99.90
11107;DHT22;5607;48.302;14.294;2023-02-28T17:07:48;5.90;99.90
11107;DHT22;5607;48.302;14.294;2023-02-28T17:10:35;5.80;99.90
11107;DHT22;5607;48.302;14.294;2023-02-28T17:13:21;5.70;99.90
11107;DHT22;5607;48.302;14.294;2023-02-28T17:16:13;5.70;99.90
11107;DHT22;5607;48.302;14.294;2023-02-28T17:19:12;5.70;99.90
11107;DHT22;5607;48.302;14.294;2023-02-28T17:22:00;5.70;99.90
11107;DHT22;5607;48.302;14.294;2023-02-28T17:24:47;5.90;99.90
11107;DHT22;5607;48.302;14.294;2023-02-28T17:27:33;5.80;99.90
11107;DHT22;5607;48.302;14.294;2023-02-28T17:30:21;5.90;99.90
11107;DHT22;5607;48.302;14.294;2023-02-28T17:33:10;5.70;99.90
11107;DHT22;5607;48.302;14.294;2023-02-28T17:35:56;5.60;99.90
11107;DHT22;5607;48.302;14.294;2023-02-28T17:38:43;5.70;99.90
11107;DHT22;5607;48.302;14.294;2023-02-28T17:41:30;5.70;99.90
11107;DHT22;5607;48.302;14.294;2023-02-28T17:44:19;5.70;99.90
11107;DHT22;5607;48.302;14.294;2023-02-28T17:47:06;5.60;99.90
11107;DHT22;5607;48.302;14.294;2023-02-28T17:49:53;5.60;99.90
11107;DHT22;5607;48.302;14.294;2023-02-28T17:52:39;5.60;99.90
11107;DHT22;5607;48.302;14.294;2023-02-28T17:55:26;5.60;99.90
11107;DHT22;5607;48.302;14.294;2023-02-28T17:58:13;5.50;99.90
11107;DHT22;5607;48.302;14.294;2023-02-28T18:01:00;5.50;99.90
11107;DHT22;5607;48.302;14.294;2023-02-28T18:03:47;5.60;99.90
11107;DHT22;5607;48.302;14.294;2023-02-28T18:06:38;5.50;99.90
11107;DHT22;5607;48.302;14.294;2023-02-28T18:09:33;5.50;99.90
11107;DHT22;5607;48.302;14.294;2023-02-28T18:12:20;5.50;99.90
11107;DHT22;5607;48.302;14.294;2023-02-28T18:15:07;5.60;99.90
11107;DHT22;5607;48.302;14.294;2023-02-28T18:17:54;5.60;99.90
11107;DHT22;5607;48.302;14.294;2023-02-28T18:20:41;5.60;99.90
11107;DHT22;5607;48.302;14.294;2023-02-28T18:23:28;5.50;99.90
11107;DHT22;5607;48.302;14.294;2023-02-28T18:26:16;5.50;99.90
11107;DHT22;5607;48.302;14.294;2023-02-28T18:29:04;5.60;99.90
11107;DHT22;5607;48.302;14.294;2023-02-28T18:31:52;5.50;99.90
11107;DHT22;5607;48.302;14.294;2023-02-28T18:34:39;5.70;99.90
11107;DHT22;5607;48.302;14.294;2023-02-28T18:37:26;5.60;99.90
11107;DHT22;5607;48.302;14.294;2023-02-28T18:40:13;5.50;99.90
11107;DHT22;5607;48.302;14.294;2023-02-28T18:43:01;5.60;99.90
11107;DHT22;5607;48.302;14.294;2023-02-28T18:45:48;5.50;99.90
11107;DHT22;5607;48.302;14.294;2023-02-28T18:48:35;5.50;99.90
11107;DHT22;5607;48.302;14.294;2023-02-28T18:51:23;5.50;99.90
11107;DHT22;5607;48.302;14.294;2023-02-28T18:54:12;5.70;99.90
11107;DHT22;5607;48.302;14.294;2023-02-28T18:57:00;5.70;99.90
11107;DHT22;5607;48.302;14.294;2023-02-28T18:59:46;5.60;99.90
11107;DHT22;5607;48.302;14.294;2023-02-28T19:02:33;5.60;99.90
11107;DHT22;5607;48.302;14.294;2023-02-28T19:05:19;5.50;99.90
11107;DHT22;5607;48.302;14.294;2023-02-28T19:08:06;5.50;99.90
11107;DHT22;5607;48.302;14.294;2023-02-28T19:10:54;5.50;99.90
11107;DHT22;5607;48.302;14.294;2023-02-28T19:13:40;5.60;99.90
11107;DHT22;5607;48.302;14.294;2023-02-28T19:16:28;5.60;99.90
11107;DHT22;5607;48.302;14.294;2023-02-28T19:19:15;5.70;99.90
11107;DHT22;5607;48.302;14.294;2023-02-28T19:22:01;5.60;99.90
11107;DHT22;5607;48.302;14.294;2023-02-28T19:24:48;5.70;99.90
11107;DHT22;5607;48.302;14.294;2023-02-28T19:27:36;5.60;99.90
11107;DHT22;5607;48.302;14.294;2023-02-28T19:30:23;5.50;99.90
11107;DHT22;5607;48.302;14.294;2023-02-28T19:33:11;5.50;99.90
11107;DHT22;5607;48.302;14.294;2023-02-28T19:36:00;5.50;99.90
11107;DHT22;5607;48.302;14.294;2023-02-28T19:38:47;5.50;99.90
11107;DHT22;5607;48.302;14.294;2023-02-28T19:41:35;5.50;99.90
11107;DHT22;5607;48.302;14.294;2023-02-28T19:44:23;5.50;99.90
11107;DHT22;5607;48.302;14.294;2023-02-28T19:47:10;5.50;99.90
11107;DHT22;5607;48.302;14.294;2023-02-28T19:49:57;5.40;99.90
11107;DHT22;5607;48.302;14.294;2023-02-28T19:52:44;5.30;99.90
11107;DHT22;5607;48.302;14.294;2023-02-28T19:55:31;5.30;99.90
11107;DHT22;5607;48.302;14.294;2023-02-28T19:58:18;5.20;99.90
11107;DHT22;5607;48.302;14.294;2023-02-28T20:01:08;5.20;99.90
11107;DHT22;5607;48.302;14.294;2023-02-28T20:04:00;5.10;99.90
11107;DHT22;5607;48.302;14.294;2023-02-28T20:06:49;5.10;99.90
11107;DHT22;5607;48.302;14.294;2023-02-28T20:09:36;5.10;99.90
11107;DHT22;5607;48.302;14.294;2023-02-28T20:12:23;5.10;99.90
11107;DHT22;5607;48.302;14.294;2023-02-28T20:15:11;5.10;99.90
11107;DHT22;5607;48.302;14.294;2023-02-28T20:17:57;5.00;99.90
11107;DHT22;5607;48.302;14.294;2023-02-28T20:20:45;4.90;99.90
11107;DHT22;5607;48.302;14.294;2023-02-28T20:23:32;4.90;99.90
11107;DHT22;5607;48.302;14.294;2023-02-28T20:26:18;4.90;99.90